Time;durP1;ratioP1;P1;durP2;ratioP2;P2;SDS_P1;SDS_P2;PMS_P1;PMS_P2;Temp;Humidity;BMP_temperature;BMP_pressure;BME280_temperature;BME280_humidity;BME280_pressure;Samples;Min_cycle;Max_cycle;Signal;HPM_P1;HPM_P2
2021/11/12 00:14:24;;;;;;;16.30;8.78;;;;;;;1.17;67.90;101901.28;1768986;80;25807;-62
2021/11/12 00:16:46;;;;;;;15.05;7.95;;;;;;;1.15;67.92;101907.11;1766126;80;26616;-63
2021/11/12 00:19:15;;;;;;;16.00;8.68;;;;;;;1.11;67.86;101911.64;1770688;80;25941;-62
2021/11/12 00:21:43;;;;;;;15.48;9.05;;;;;;;1.07;67.97;101916.17;1771776;80;27478;-62
2021/11/12 00:24:10;;;;;;;17.57;9.20;;;;;;;1.06;68.25;101908.25;1772315;80;25810;-62
2021/11/12 00:26:38;;;;;;;14.20;8.40;;;;;;;1.07;68.15;101910.88;1770793;80;25949;-62
2021/11/12 00:29:07;;;;;;;15.48;8.18;;;;;;;1.03;68.14;101911.87;1771110;79;26470;-62
2021/11/12 00:34:26;;;;;;;16.50;8.93;;;;;;;1.00;68.51;101917.72;1771138;80;27419;-62
2021/11/12 00:36:49;;;;;;;15.58;8.48;;;;;;;0.96;68.41;101915.63;1768050;80;25825;-62
2021/11/12 00:42:10;;;;;;;17.48;9.30;;;;;;;1.00;68.69;101916.39;1768761;80;26530;-61
2021/11/12 00:44:34;;;;;;;13.58;8.05;;;;;;;1.01;68.59;101922.96;1763062;80;26510;-62
2021/11/12 00:47:09;;;;;;;14.73;8.60;;;;;;;1.01;68.49;101915.02;1771919;80;27466;-62
2021/11/12 00:49:35;;;;;;;15.58;8.80;;;;;;;1.03;68.40;101922.94;1734702;82;26472;-62
2021/11/12 00:52:04;;;;;;;12.68;8.68;;;;;;;1.00;68.24;101924.34;1768569;80;25779;-62
2021/11/12 00:54:29;;;;;;;15.60;7.70;;;;;;;0.96;68.08;101919.59;1736345;82;26530;-62
2021/11/12 00:56:57;;;;;;;19.48;8.65;;;;;;;0.90;67.95;101910.48;1737715;81;25823;-63
2021/11/12 00:59:24;;;;;;;14.15;7.42;;;;;;;0.86;67.84;101916.34;1747128;81;27451;-62
2021/11/12 01:01:52;;;;;;;13.25;7.80;;;;;;;0.85;67.84;101917.24;1748272;81;26456;-61
2021/11/12 01:04:22;;;;;;;14.75;8.45;;;;;;;0.83;68.12;101919.53;1743994;81;25950;-62
2021/11/12 01:06:50;;;;;;;16.67;8.25;;;;;;;0.83;68.32;101916.45;1751169;79;25822;-61
2021/11/12 01:09:21;;;;;;;13.20;8.73;;;;;;;0.82;68.39;101916.47;1756490;81;25722;-62
2021/11/12 01:11:50;;;;;;;16.05;9.68;;;;;;;0.82;68.63;101913.82;1755176;79;26881;-62
2021/11/12 01:14:22;;;;;;;15.70;8.90;;;;;;;0.85;68.76;101922.55;1758980;80;25802;-62
2021/11/12 01:16:51;;;;;;;13.68;8.98;;;;;;;0.88;68.90;101921.61;1751910;81;25816;-62
2021/11/12 01:19:18;;;;;;;15.55;9.23;;;;;;;0.89;68.85;101920.23;1754986;81;25864;-62
2021/11/12 01:21:46;;;;;;;18.02;9.10;;;;;;;0.88;68.71;101923.79;1751276;81;25805;-62
2021/11/12 01:24:13;;;;;;;13.83;8.68;;;;;;;0.88;68.68;101918.96;1755241;80;27380;-62
2021/11/12 01:26:40;;;;;;;16.12;8.28;;;;;;;0.88;68.64;101928.23;1756924;81;25739;-62
2021/11/12 01:29:07;;;;;;;12.43;8.45;;;;;;;0.85;68.41;101929.64;1757591;79;26466;-62
2021/11/12 01:31:35;;;;;;;12.30;7.58;;;;;;;0.81;68.31;101928.86;1757556;81;25840;-62
2021/11/12 01:34:08;;;;;;;15.40;9.75;;;;;;;0.78;68.15;101934.23;1752941;81;25845;-62
2021/11/12 01:36:42;;;;;;;14.85;9.05;;;;;;;0.72;68.12;101931.30;1749707;81;27412;-62
2021/11/12 01:39:13;;;;;;;12.93;8.17;;;;;;;0.72;68.18;101938.39;1758436;79;25834;-62
2021/11/12 01:41:49;;;;;;;17.67;8.28;;;;;;;0.68;68.07;101936.73;1753137;81;25760;-62
2021/11/12 01:44:28;;;;;;;17.55;8.85;;;;;;;0.65;68.29;101935.05;1749611;81;25799;-62
2021/11/12 01:47:10;;;;;;;16.15;8.98;;;;;;;0.61;68.38;101930.77;1751032;81;26122;-62
2021/11/12 01:49:27;;;;;;;16.62;8.15;;;;;;;0.54;68.33;101930.53;1752371;79;27513;-62
2021/11/12 01:52:06;;;;;;;14.03;8.25;;;;;;;0.52;68.43;101934.52;1750023;81;25839;-62
2021/11/12 01:54:38;;;;;;;12.10;7.83;;;;;;;0.55;68.55;101940.18;1752364;81;25839;-62
2021/11/12 01:59:20;;;;;;;21.37;8.28;;;;;;;0.53;68.64;101948.18;1748621;79;25736;-62
2021/11/12 02:01:57;;;;;;;10.60;7.10;;;;;;;0.50;68.60;101949.58;1759272;79;27452;-62
2021/11/12 02:04:28;;;;;;;15.50;7.80;;;;;;;0.42;68.76;101952.45;1749165;81;26514;-61
2021/11/12 02:06:58;;;;;;;14.50;8.70;;;;;;;0.32;68.42;101953.61;1754712;81;25795;-62
2021/11/12 02:09:28;;;;;;;11.48;7.70;;;;;;;0.25;68.52;101950.72;1749231;81;25798;-62
2021/11/12 02:12:10;;;;;;;16.12;8.75;;;;;;;0.23;68.55;101961.79;1746209;81;25750;-62
2021/11/12 02:14:32;;;;;;;15.13;8.30;;;;;;;0.20;68.50;101958.77;1749174;81;27477;-61
2021/11/12 02:17:11;;;;;;;14.93;9.35;;;;;;;0.17;68.73;101956.20;1753199;81;26481;-62
2021/11/12 02:19:36;;;;;;;15.03;8.78;;;;;;;0.10;68.71;101958.13;1747317;81;25794;-62
2021/11/12 02:22:13;;;;;;;14.05;8.98;;;;;;;0.09;68.79;101967.44;1753450;81;25880;-62
2021/11/12 02:24:49;;;;;;;18.15;9.33;;;;;;;0.08;68.85;101959.97;1755134;79;25813;-62
2021/11/12 02:27:14;;;;;;;15.83;9.35;;;;;;;0.10;68.99;101959.91;1749118;79;29636;-62
2021/11/12 02:29:47;;;;;;;14.07;8.70;;;;;;;0.10;69.02;101964.74;1752995;80;25923;-61
2021/11/12 02:32:30;;;;;;;18.27;9.35;;;;;;;0.10;68.96;101959.45;1749201;81;25885;-62
2021/11/12 02:35:00;;;;;;;17.95;8.73;;;;;;;0.12;69.04;101968.22;1751950;81;25818;-62
2021/11/12 02:37:32;;;;;;;19.02;9.30;;;;;;;0.15;69.08;101972.56;1750406;81;25802;-62
2021/11/12 02:39:59;;;;;;;17.98;9.65;;;;;;;0.15;69.16;101972.56;1750922;81;28199;-62
2021/11/12 02:42:28;;;;;;;18.23;9.78;;;;;;;0.14;69.05;101971.70;1759136;81;25784;-62
2021/11/12 02:44:56;;;;;;;17.27;9.85;;;;;;;0.11;68.94;101973.56;1755735;81;25718;-62
2021/11/12 02:47:23;;;;;;;20.32;10.25;;;;;;;0.12;68.87;101981.92;1758397;81;25981;-62
2021/11/12 02:49:52;;;;;;;17.65;10.18;;;;;;;0.07;68.64;101985.13;1756711;79;25816;-63
2021/11/12 02:52:19;;;;;;;17.25;9.83;;;;;;;0.04;68.65;101982.58;1728393;82;27542;-62
2021/11/12 02:54:48;;;;;;;24.72;9.60;;;;;;;0.01;68.43;101985.28;1810973;79;25713;-62
2021/11/12 02:57:18;;;;;;;21.50;10.10;;;;;;;-0.04;68.56;101987.58;1763532;80;25695;-62
2021/11/12 02:59:45;;;;;;;23.98;11.68;;;;;;;-0.07;68.60;101988.11;1754457;81;25822;-62
2021/11/12 03:02:12;;;;;;;21.33;10.95;;;;;;;-0.06;68.69;101991.17;1754006;81;25833;-62
2021/11/12 03:04:40;;;;;;;18.65;11.88;;;;;;;-0.08;68.70;101988.58;1800689;78;27469;-62
2021/11/12 03:07:07;;;;;;;26.57;11.40;;;;;;;-0.14;68.59;101985.20;1805279;78;25690;-62
2021/11/12 03:09:35;;;;;;;25.10;11.40;;;;;;;-0.19;68.58;101998.53;1798823;79;25699;-62
2021/11/12 03:12:06;;;;;;;20.65;11.05;;;;;;;-0.21;68.77;102001.23;1804380;79;25906;-62
2021/11/12 03:14:35;;;;;;;23.38;10.58;;;;;;;-0.21;68.73;101999.02;1805269;79;26431;-62
2021/11/12 03:17:04;;;;;;;21.62;10.25;;;;;;;-0.25;68.74;101998.69;1806092;78;28059;-62
2021/11/12 03:19:33;;;;;;;19.60;10.90;;;;;;;-0.23;68.80;102001.71;1805034;79;25793;-62
2021/11/12 03:22:07;;;;;;;21.50;10.40;;;;;;;-0.24;68.81;101998.64;1802793;78;25841;-62
2021/11/12 03:24:37;;;;;;;16.82;9.48;;;;;;;-0.23;69.02;102000.86;1805186;78;26449;-61
2021/11/12 03:27:26;;;;;;;19.37;11.10;;;;;;;-0.22;68.91;102006.09;1805001;78;25821;-62
2021/11/12 03:59:56;;;;;;;19.75;10.55;;;;;;;-0.57;69.27;101997.20;1804919;79;25762;-62
2021/11/12 04:02:34;;;;;;;22.75;11.75;;;;;;;-0.57;69.31;101999.84;1804429;77;25843;-63
2021/11/12 04:21:12;;;;;;;18.57;11.97;;;;;;;-0.81;70.05;102005.20;1805294;78;26743;-63
2021/11/12 05:51:02;;;;;;;39.48;19.65;;;;;;;0.09;71.54;102079.42;1810585;78;25992;-62
2021/11/12 05:55:58;;;;;;;47.60;20.90;;;;;;;0.19;71.60;102084.06;1811156;78;26017;-62
2021/11/12 05:58:26;;;;;;;42.23;21.97;;;;;;;0.24;71.54;102082.16;1814254;78;27583;-62
2021/11/12 06:00:53;;;;;;;48.45;21.52;;;;;;;0.28;71.42;102078.98;1817366;77;25767;-62
2021/11/12 06:03:20;;;;;;;46.85;20.95;;;;;;;0.29;71.30;102080.73;1812381;77;25694;-63
2021/11/12 06:05:47;;;;;;;48.02;20.68;;;;;;;0.33;71.26;102081.09;1814466;78;25867;-61
2021/11/12 06:08:14;;;;;;;39.92;20.77;;;;;;;0.37;71.19;102093.32;1815004;78;25754;-62
2021/11/12 06:10:43;;;;;;;39.33;20.45;;;;;;;0.40;71.02;102091.93;1811096;78;27417;-61
2021/11/12 06:13:11;;;;;;;40.50;22.05;;;;;;;0.42;70.88;102098.50;1809564;77;26475;-63
2021/11/12 06:15:39;;;;;;;43.83;19.92;;;;;;;0.40;70.71;102094.58;1816256;78;25806;-64
2021/11/12 06:18:06;;;;;;;45.23;20.23;;;;;;;0.39;70.52;102103.42;1816589;78;26162;-63
2021/11/12 06:20:34;;;;;;;49.77;22.10;;;;;;;0.40;70.48;102102.98;1741592;80;25723;-64
2021/11/12 06:23:01;;;;;;;58.40;24.50;;;;;;;0.39;70.39;102101.25;1770900;79;27381;-65
2021/11/12 06:25:28;;;;;;;46.30;22.32;;;;;;;0.39;70.42;102103.42;1769876;80;26173;-62
2021/11/12 06:27:55;;;;;;;51.95;22.55;;;;;;;0.39;70.51;102107.39;1761382;79;25771;-62
2021/11/12 06:30:38;;;;;;;43.65;23.18;;;;;;;0.42;70.52;102101.16;1769602;79;25809;-63
2021/11/12 06:34:19;;;;;;;;;;;;;;;;;;;;;
2021/11/12 06:36:03;;;;;;;44.60;21.97;;;;;;;0.56;70.63;102099.05;1694363;82;27416;-62
2021/11/12 06:38:31;;;;;;;47.55;25.60;;;;;;;0.60;70.36;102102.48;1800833;78;26010;-62
2021/11/12 06:41:04;;;;;;;49.10;24.35;;;;;;;0.63;70.39;102101.06;1819278;76;25825;-62
2021/11/12 06:43:40;;;;;;;57.62;25.88;;;;;;;0.71;70.52;102103.52;1819105;78;25838;-62
2021/11/12 06:51:31;;;;;;;60.60;26.45;;;;;;;0.97;70.92;102097.98;1808109;78;26375;-63
2021/11/12 06:53:58;;;;;;;55.78;25.90;;;;;;;1.08;71.17;102093.27;1807036;78;25703;-63
2021/11/12 06:56:26;;;;;;;55.55;26.62;;;;;;;1.23;71.31;102094.63;1806264;79;25731;-63
2021/11/12 06:58:53;;;;;;;76.00;27.70;;;;;;;1.36;71.17;102096.01;1805060;78;25751;-63
2021/11/12 07:01:21;;;;;;;59.70;28.35;;;;;;;1.51;71.17;102097.82;1802397;78;27480;-63
2021/11/12 07:03:48;;;;;;;54.48;29.15;;;;;;;1.59;71.18;102101.11;1805415;78;25714;-63
2021/11/12 07:06:15;;;;;;;56.53;28.77;;;;;;;1.68;70.96;102105.26;1806865;77;26590;-63
2021/11/12 07:08:42;;;;;;;59.63;28.38;;;;;;;1.76;71.11;102099.73;1805609;78;27014;-63
2021/11/12 07:11:09;;;;;;;60.60;31.68;;;;;;;1.78;70.75;102098.77;1809665;78;25798;-63
2021/11/12 07:13:37;;;;;;;60.48;31.20;;;;;;;1.76;70.86;102101.06;1806386;78;27459;-64
2021/11/12 07:16:04;;;;;;;56.18;30.90;;;;;;;1.78;70.63;102096.11;1805179;78;25961;-63
2021/11/12 07:18:31;;;;;;;80.55;37.83;;;;;;;1.82;70.80;102100.86;1800635;78;25731;-63
2021/11/12 07:20:59;;;;;;;66.35;32.67;;;;;;;1.83;70.83;102100.84;1803419;79;25958;-63
2021/11/12 07:23:27;;;;;;;61.53;34.70;;;;;;;1.82;71.36;102102.19;1804940;79;25770;-63
2021/11/12 07:25:55;;;;;;;76.42;36.55;;;;;;;1.87;71.27;102102.47;1804371;78;27547;-63
2021/11/12 07:28:24;;;;;;;82.90;39.15;;;;;;;1.93;71.37;102101.41;1805141;78;25739;-63
2021/11/12 07:30:54;;;;;;;79.12;35.95;;;;;;;2.02;71.42;102108.20;1796349;78;26172;-62
2021/11/12 07:33:23;;;;;;;73.33;35.88;;;;;;;2.15;71.61;102102.94;1803826;79;26443;-62
2021/11/12 07:36:01;;;;;;;69.53;36.63;;;;;;;2.27;71.67;102102.14;1811507;78;25761;-62
2021/11/12 07:38:26;;;;;;;72.10;37.20;;;;;;;2.40;71.61;102099.48;1802547;79;28166;-63
2021/11/12 07:46:06;;;;;;;77.37;39.15;;;;;;;2.77;70.98;102099.56;1802152;78;26265;-62
2021/11/12 07:48:23;;;;;;;84.72;41.42;;;;;;;2.89;70.66;102100.07;1799941;78;25829;-63
2021/11/12 07:50:50;;;;;;;79.20;41.42;;;;;;;2.99;69.87;102096.17;1799237;77;27609;-61
2021/11/12 07:53:17;;;;;;;81.80;39.45;;;;;;;3.00;69.47;102100.57;1800972;78;25815;-62
2021/11/12 07:55:44;;;;;;;88.35;41.73;;;;;;;3.01;69.41;102104.94;1798024;79;25785;-63
2021/11/12 07:58:11;;;;;;;86.82;42.20;;;;;;;3.06;69.32;102104.77;1802079;78;26455;-63
2021/11/12 08:00:38;;;;;;;72.35;39.63;;;;;;;3.16;69.35;102104.00;1810238;78;25702;-63
2021/11/12 08:03:05;;;;;;;79.40;40.75;;;;;;;3.26;69.01;102101.42;1798735;78;27426;-63
2021/11/12 08:05:37;;;;;;;81.67;41.33;;;;;;;3.39;68.69;102104.02;1805331;78;25718;-63
2021/11/12 08:08:06;;;;;;;81.87;43.50;;;;;;;3.50;68.63;102096.95;1796824;78;25695;-63
2021/11/12 08:10:32;;;;;;;85.10;42.67;;;;;;;3.71;68.83;102106.39;1803961;78;26037;-62
2021/11/12 08:13:09;;;;;;;91.65;45.67;;;;;;;3.93;68.26;102099.77;1797510;78;25781;-63
2021/11/12 08:21:04;;;;;;;86.85;44.73;;;;;;;4.40;66.83;102092.11;1792586;80;25707;-63
2021/11/12 08:23:40;;;;;;;86.57;45.90;;;;;;;4.58;66.76;102085.61;1791703;80;25967;-64
2021/11/12 08:26:12;;;;;;;82.88;46.60;;;;;;;4.83;66.79;102092.10;1790170;79;26361;-63
2021/11/12 08:39:24;;;;;;;81.67;45.60;;;;;;;5.75;62.88;102073.71;1806475;78;25721;-64
2021/11/12 08:42:03;;;;;;;85.40;46.10;;;;;;;6.19;62.16;102070.33;1828098;77;27484;-64
2021/11/12 08:45:16;;;;;;;;;;;;;;;6.99;60.91;102077.45;1833522;76;25713;-64
2021/11/12 08:47:08;;;;;;;89.42;42.67;;;;;;;7.82;58.01;102064.91;1793856;78;26614;-64
2021/11/12 08:49:30;;;;;;;87.27;44.95;;;;;;;8.59;57.88;102067.68;1829568;78;25812;-63
2021/11/12 08:51:59;;;;;;;91.82;47.03;;;;;;;9.19;55.47;102060.94;1825893;77;25770;-63
2021/11/12 08:54:30;;;;;;;83.03;44.93;;;;;;;9.65;54.09;102054.50;1822019;78;27448;-63
2021/11/12 08:56:57;;;;;;;78.62;43.83;;;;;;;10.11;53.72;102059.58;1803206;78;25766;-64
2021/11/12 08:59:24;;;;;;;73.97;42.43;;;;;;;10.46;52.37;102056.38;1819286;77;25817;-64
2021/11/12 09:01:52;;;;;;;83.22;44.35;;;;;;;11.08;53.56;102054.83;1810973;78;25799;-64
2021/11/12 09:04:19;;;;;;;82.10;43.73;;;;;;;11.52;52.06;102051.76;1826202;77;25899;-64
2021/11/12 09:06:46;;;;;;;83.20;44.23;;;;;;;12.06;52.34;102049.18;1830022;78;27504;-64
2021/11/12 09:09:13;;;;;;;71.57;43.73;;;;;;;12.56;49.75;102043.63;1820448;76;26300;-63
2021/11/12 09:11:41;;;;;;;73.10;43.42;;;;;;;12.97;48.38;102042.73;1822054;78;25861;-64
2021/11/12 09:14:15;;;;;;;64.00;41.55;;;;;;;13.38;48.71;102041.30;1824159;76;26529;-64
2021/11/12 09:16:43;;;;;;;77.95;42.10;;;;;;;13.82;47.94;102035.12;1829503;76;25794;-64
2021/11/12 09:19:08;;;;;;;72.42;41.28;;;;;;;14.32;46.97;102035.94;1825571;76;27430;-63
2021/11/12 09:21:35;;;;;;;72.45;40.78;;;;;;;14.65;45.89;102034.03;1806923;77;26077;-65
2021/11/12 09:24:04;;;;;;;66.82;40.20;;;;;;;14.94;45.18;102034.24;1775955;79;25767;-66
2021/11/12 09:26:40;;;;;;;65.30;41.05;;;;;;;15.37;43.77;102033.66;1795084;77;26609;-65
2021/11/12 09:29:11;;;;;;;58.33;37.73;;;;;;;15.53;41.72;102026.37;1790142;78;26236;-64
2021/11/12 09:31:40;;;;;;;63.87;39.15;;;;;;;15.76;41.76;102022.06;1824872;77;27025;-65
2021/11/12 09:34:10;;;;;;;62.10;38.95;;;;;;;16.18;43.02;102019.64;1807426;77;25795;-66
2021/11/12 09:36:37;;;;;;;73.42;38.15;;;;;;;16.57;41.79;102016.41;1812559;77;25767;-65
2021/11/12 09:39:05;;;;;;;61.85;37.48;;;;;;;16.85;40.45;102019.20;1809521;79;26575;-66
2021/11/12 09:41:32;;;;;;;68.02;37.95;;;;;;;17.03;39.72;102011.16;1786094;77;25783;-66
2021/11/12 09:44:02;;;;;;;72.05;39.73;;;;;;;17.42;40.22;102009.28;1797626;78;28067;-66
2021/11/12 09:46:31;;;;;;;76.77;38.98;;;;;;;17.73;38.19;102003.53;1818096;78;25762;-65
2021/11/12 09:49:02;;;;;;;57.03;36.00;;;;;;;18.13;38.65;102004.48;1818518;78;25729;-65
2021/11/12 09:51:30;;;;;;;61.45;38.67;;;;;;;18.65;37.89;101995.19;1814981;77;25810;-65
2021/11/12 09:53:58;;;;;;;58.68;37.88;;;;;;;18.93;36.75;101995.89;1772159;80;26148;-66
2021/11/12 09:56:25;;;;;;;60.75;37.42;;;;;;;18.86;34.51;101995.64;1776745;80;28146;-65
2021/11/12 09:58:51;;;;;;;66.42;36.30;;;;;;;18.88;34.81;101991.39;1801897;78;25892;-66
2021/11/12 10:01:26;;;;;;;64.42;36.88;;;;;;;19.07;34.30;101983.00;1820954;76;25733;-66
2021/11/12 10:03:48;;;;;;;58.17;36.48;;;;;;;19.36;35.01;101989.12;1801941;77;25887;-66
2021/11/12 10:06:27;;;;;;;62.10;37.00;;;;;;;19.67;34.85;101980.33;1818612;76;26356;-67
2021/11/12 10:08:55;;;;;;;57.95;37.83;;;;;;;19.77;33.79;101985.13;1820343;78;27424;-65
2021/11/12 10:11:30;;;;;;;57.58;36.68;;;;;;;19.79;33.38;101976.27;1832121;78;25808;-65
2021/11/12 10:14:04;;;;;;;67.20;37.25;;;;;;;20.14;33.10;101975.64;1822301;77;25783;-65
2021/11/12 10:16:36;;;;;;;62.62;36.60;;;;;;;20.40;32.45;101968.27;1815591;78;26936;-66
2021/11/12 10:19:12;;;;;;;;;;;;;;;20.59;31.86;101960.23;1817232;78;25776;-65
2021/11/12 10:21:54;;;;;;;61.30;35.40;;;;;;;20.77;31.49;101961.41;1813975;77;28309;-66
2021/11/12 10:24:37;;;;;;;59.42;37.25;;;;;;;21.04;31.85;101953.80;1834532;77;25795;-69
2021/11/12 10:27:28;;;;;;;57.43;35.92;;;;;;;21.37;31.43;101951.77;1768782;79;25789;-69
2021/11/12 10:30:11;;;;;;;54.30;36.77;;;;;;;21.70;31.03;101951.59;1729705;80;25820;-66
2021/11/12 10:32:40;;;;;;;57.35;36.03;;;;;;;21.87;31.00;101948.23;1747315;80;25736;-66
2021/11/12 10:35:23;;;;;;;61.68;37.45;;;;;;;22.17;29.64;101941.50;1765065;81;27444;-66
2021/11/12 10:37:53;;;;;;;57.93;37.08;;;;;;;22.33;29.38;101936.36;1764258;80;35350;-66
2021/11/12 10:40:25;;;;;;;51.58;34.85;;;;;;;22.51;29.72;101928.33;1752290;81;26421;-66
2021/11/12 10:42:55;;;;;;;51.50;34.90;;;;;;;22.75;29.15;101927.22;1755641;80;26862;-66
2021/11/12 10:45:25;;;;;;;62.95;35.80;;;;;;;22.94;28.69;101923.56;1755310;81;25713;-66
2021/11/12 10:48:02;;;;;;;55.85;36.13;;;;;;;23.06;28.70;101916.56;1811839;78;27455;-67
2021/11/12 10:50:33;;;;;;;63.30;36.83;;;;;;;23.23;28.28;101913.09;1750059;81;25707;-65
2021/11/12 10:53:10;;;;;;;57.15;35.85;;;;;;;23.49;28.95;101912.22;1753600;81;25815;-65
2021/11/12 10:55:37;;;;;;;66.70;37.83;;;;;;;23.76;27.49;101908.70;1812525;78;25839;-65
2021/11/12 10:58:11;;;;;;;63.83;36.73;;;;;;;23.92;27.78;101902.60;1816389;78;25829;-65
2021/11/12 11:00:46;;;;;;;45.50;31.15;;;;;;;24.11;27.63;101905.75;1816698;78;27413;-66
2021/11/12 11:03:17;;;;;;;50.58;32.20;;;;;;;24.17;26.58;101905.81;1751592;80;25933;-66
2021/11/12 11:05:50;;;;;;;48.48;30.65;;;;;;;24.07;27.14;101908.89;1758033;80;25731;-64
2021/11/12 11:08:20;;;;;;;;;;;;;;;24.01;26.60;101906.11;1750709;81;26634;-66
2021/11/12 11:10:59;;;;;;;58.05;34.30;;;;;;;24.07;26.49;101896.52;1739740;82;25812;-66
2021/11/12 11:13:30;;;;;;;62.03;33.83;;;;;;;24.16;26.68;101899.98;1805105;77;28094;-66
2021/11/12 11:16:01;;;;;;;39.55;27.73;;;;;;;24.15;26.45;101897.45;1812489;77;25853;-65
2021/11/12 11:18:50;;;;;;;52.48;32.38;;;;;;;24.00;25.29;101893.41;1805527;78;25754;-67
2021/11/12 11:24:07;;;;;;;42.85;26.35;;;;;;;23.66;26.25;101883.99;1810382;78;25847;-63
2021/11/12 11:26:47;;;;;;;41.70;25.72;;;;;;;23.13;26.72;101884.55;1795127;79;27470;-66
2021/11/12 11:29:20;;;;;;;38.60;23.90;;;;;;;22.56;26.98;101885.27;1804524;78;26681;-65
2021/11/12 11:31:48;;;;;;;33.60;20.87;;;;;;;22.13;27.63;101881.23;1805508;79;25781;-64
2021/11/12 11:34:15;;;;;;;34.65;21.93;;;;;;;21.60;28.19;101871.61;1810919;78;25771;-65
2021/11/12 11:36:45;;;;;;;30.77;20.12;;;;;;;21.21;28.72;101873.34;1799768;78;25807;-66
2021/11/12 11:39:16;;;;;;;39.63;22.98;;;;;;;20.81;29.10;101867.06;1804236;79;27499;-66
2021/11/12 11:41:48;;;;;;;28.55;20.72;;;;;;;20.40;29.54;101865.30;1804234;77;26477;-66
2021/11/12 11:44:19;;;;;;;33.75;21.30;;;;;;;20.20;29.41;101862.59;1807679;77;25871;-66
2021/11/12 11:46:50;;;;;;;27.50;19.95;;;;;;;19.56;30.23;101862.78;1832025;77;26428;-66
2021/11/12 11:49:21;;;;;;;33.45;20.55;;;;;;;19.14;30.90;101862.37;1819204;78;25745;-65
2021/11/12 11:51:59;;;;;;;31.37;21.73;;;;;;;18.77;31.53;101863.91;1807764;78;30881;-66
2021/11/12 11:54:30;;;;;;;43.45;22.30;;;;;;;18.43;31.84;101860.66;1812863;77;25806;-66
2021/11/12 11:57:02;;;;;;;32.73;21.33;;;;;;;18.06;32.24;101856.85;1802423;79;26551;-65
2021/11/12 11:59:37;;;;;;;29.67;20.08;;;;;;;17.61;33.01;101855.44;1812395;78;26476;-65
2021/11/12 12:02:07;;;;;;;38.05;22.45;;;;;;;17.32;33.48;101848.88;1809882;78;25867;-66
2021/11/12 12:04:56;;;;;;;39.50;22.62;;;;;;;17.07;34.06;101847.75;1802145;77;27067;-63
2021/11/12 12:07:41;;;;;;;29.42;20.75;;;;;;;16.93;34.21;101845.92;1805305;79;25961;-65
2021/11/12 12:10:27;;;;;;;32.88;21.57;;;;;;;16.60;34.94;101846.82;1819380;78;25755;-64
2021/11/12 12:12:57;;;;;;;33.35;20.97;;;;;;;16.41;35.28;101845.05;1780554;77;26222;-65
2021/11/12 12:15:29;;;;;;;37.10;20.97;;;;;;;16.22;35.43;101841.39;1789542;78;25302;-66
2021/11/12 12:18:17;;;;;;;34.10;21.15;;;;;;;16.05;36.06;101835.36;1832809;78;27573;-66
2021/11/12 12:21:22;;;;;;;36.30;21.93;;;;;;;15.95;36.23;101836.23;1815738;77;25785;-65
2021/11/12 13:26:04;;;;;;;50.92;26.80;;;;;;;12.88;42.93;101834.16;1814508;77;26504;-65
2021/11/12 13:28:44;;;;;;;50.92;26.77;;;;;;;12.80;43.44;101835.64;1804911;76;28114;-65
2021/11/12 13:31:19;;;;;;;56.80;27.20;;;;;;;12.75;43.70;101832.47;1808050;78;25786;-65
2021/11/12 13:33:56;;;;;;;55.43;26.77;;;;;;;12.67;43.75;101830.38;1822700;77;25752;-65
2021/11/12 13:36:35;;;;;;;48.02;25.97;;;;;;;12.62;44.05;101835.78;1824781;78;26639;-64
2021/11/12 13:39:17;;;;;;;41.45;24.15;;;;;;;12.54;44.31;101829.67;1824400;78;26326;-65
2021/11/12 13:41:44;;;;;;;44.77;24.45;;;;;;;12.50;44.06;101831.76;1823056;78;27486;-65
2021/11/12 13:44:23;;;;;;;52.23;24.52;;;;;;;12.42;44.36;101828.78;1829975;76;25747;-64
2021/11/12 13:47:02;;;;;;;42.05;24.75;;;;;;;12.32;44.97;101831.88;1818629;78;25806;-65
2021/11/12 13:49:40;;;;;;;60.83;28.23;;;;;;;12.15;45.29;101836.73;1815644;78;26032;-64
2021/11/12 13:52:12;;;;;;;51.13;27.80;;;;;;;11.98;45.52;101829.11;1818696;76;26157;-64
2021/11/12 13:54:44;;;;;;;56.50;26.15;;;;;;;11.88;45.86;101825.74;1822053;77;27498;-64
2021/11/12 13:57:16;;;;;;;50.03;26.85;;;;;;;11.82;46.22;101830.27;1820061;77;25805;-65
2021/11/12 14:00:00;;;;;;;47.20;27.07;;;;;;;11.69;46.33;101830.36;1805354;79;25802;-65
2021/11/12 14:02:34;;;;;;;52.93;25.10;;;;;;;11.58;47.22;101826.27;1799195;78;25816;-65
2021/11/12 14:05:10;;;;;;;53.85;26.70;;;;;;;11.37;47.32;101828.29;1790994;79;25827;-64
2021/11/12 14:07:38;;;;;;;57.60;27.48;;;;;;;11.24;47.30;101824.78;1797717;78;27524;-65
2021/11/12 14:10:13;;;;;;;84.32;30.48;;;;;;;11.14;47.40;101831.35;1821162;77;25774;-64
2021/11/12 14:12:58;;;;;;;81.20;32.15;;;;;;;11.07;47.53;101832.28;1809444;78;25870;-65
2021/11/12 14:15:31;;;;;;;92.78;30.40;;;;;;;10.96;47.82;101839.81;1806321;77;25847;-64
2021/11/12 14:21:24;;;;;;;61.00;26.80;;;;;;;10.76;48.26;101831.83;1764997;78;27381;-64
2021/11/12 14:43:51;;;;;;;54.13;27.20;;;;;;;9.60;50.41;101860.02;1796893;77;26610;-64
2021/11/12 14:54:47;;;;;;;65.65;26.35;;;;;;;9.02;52.05;101870.94;1810568;78;25762;-65
2021/11/12 14:57:27;;;;;;;54.53;27.50;;;;;;;8.91;51.89;101872.13;1817857;77;25697;-65
2021/11/12 15:00:00;;;;;;;59.75;27.70;;;;;;;8.80;52.42;101875.97;1830539;78;25749;-65
2021/11/12 15:02:29;;;;;;;62.50;28.57;;;;;;;8.67;52.90;101878.57;1825077;76;27640;-65
2021/11/12 15:04:56;;;;;;;76.80;31.60;;;;;;;8.54;53.17;101875.30;1799401;77;25767;-64
2021/11/12 15:07:28;;;;;;;70.62;30.40;;;;;;;8.44;53.04;101873.66;1800215;78;25714;-65
2021/11/12 15:09:55;;;;;;;85.25;30.55;;;;;;;8.32;53.47;101873.06;1783861;78;25994;-66
2021/11/12 15:12:22;;;;;;;84.30;35.75;;;;;;;8.21;53.83;101874.19;1778337;79;25806;-66
2021/11/12 15:14:54;;;;;;;79.67;31.40;;;;;;;8.07;53.99;101877.24;1778110;80;27402;-66
2021/11/12 15:17:18;;;;;;;84.25;34.00;;;;;;;7.97;53.99;101875.61;1755802;79;25675;-66
2021/11/12 15:19:51;;;;;;;62.00;30.50;;;;;;;7.87;54.43;101878.91;1777906;79;25711;-65
2021/11/12 15:25:08;;;;;;;72.10;31.65;;;;;;;7.56;54.70;101882.92;1777779;80;25798;-66
2021/11/12 15:30:14;;;;;;;62.08;31.97;;;;;;;7.36;54.88;101884.92;1827856;78;25713;-64
2021/11/12 15:32:39;;;;;;;85.62;33.80;;;;;;;7.29;55.15;101889.40;1821465;77;25768;-65
2021/11/12 15:35:12;;;;;;;76.22;33.33;;;;;;;7.22;55.45;101893.38;1811565;77;43813;-64
2021/11/12 15:40:16;;;;;;;53.70;31.70;;;;;;;6.98;55.85;101895.13;1831113;76;28286;-66
2021/11/12 15:42:53;;;;;;;64.82;32.98;;;;;;;6.86;56.59;101897.52;1831295;76;25792;-65
2021/11/12 15:45:16;;;;;;;63.83;32.50;;;;;;;6.71;56.71;101902.38;1829795;78;25772;-66
2021/11/12 15:47:48;;;;;;;70.62;32.98;;;;;;;6.63;56.85;101905.48;1829230;76;26816;-66
2021/11/12 15:53:12;;;;;;;59.75;34.15;;;;;;;6.50;57.14;101909.25;1831087;76;28092;-66
2021/11/12 16:01:26;;;;;;;63.83;33.38;;;;;;;6.37;58.00;101910.38;1830961;76;26958;-65
2021/11/12 16:12:10;;;;;;;65.12;34.70;;;;;;;6.25;59.51;101927.93;1811504;79;25789;-66
2021/11/12 16:14:32;;;;;;;66.55;34.30;;;;;;;6.24;59.44;101928.87;1811081;78;25858;-65
2021/11/12 16:19:53;;;;;;;73.87;35.52;;;;;;;6.24;59.68;101931.55;1741035;81;26138;-63
2021/11/12 16:27:10;;;;;;;92.62;42.35;;;;;;;6.29;59.66;101935.31;1811755;79;25844;-63
2021/11/12 16:29:45;;;;;;;96.40;40.03;;;;;;;6.26;59.89;101938.16;1784996;79;26585;-64
2021/11/12 16:32:38;;;;;;;85.90;40.23;;;;;;;6.24;59.82;101938.22;1787709;78;27437;-64
2021/11/12 16:35:00;;;;;;;83.47;41.83;;;;;;;6.23;59.85;101943.66;1808587;78;26204;-64
2021/11/12 16:37:29;;;;;;;83.03;43.13;;;;;;;6.21;59.82;101946.42;1810761;79;25768;-65
2021/11/12 16:40:00;;;;;;;80.40;43.95;;;;;;;6.18;59.62;101943.89;1810916;79;25908;-65
2021/11/12 16:45:27;;;;;;;88.12;44.55;;;;;;;6.06;59.53;101949.84;1810561;79;28147;-65
2021/11/12 16:47:54;;;;;;;92.30;44.70;;;;;;;5.96;59.34;101946.76;1809312;77;25793;-64
2021/11/12 16:55:52;;;;;;;100.07;46.30;;;;;;;5.67;59.40;101958.89;1812804;79;25824;-67